Time;durP1;ratioP1;P1;durP2;ratioP2;P2;SDS_P1;SDS_P2;PMS_P1;PMS_P2;Temp;Humidity;BMP_temperature;BMP_pressure;BME280_temperature;BME280_humidity;BME280_pressure;Samples;Min_cycle;Max_cycle;Signal;HPM_P1;HPM_P2
2020/12/24 00:00:45;;;;;;;10.70;8.45;;;;;;;8.84;53.85;99839.27;1740026;81;21186;-68
2020/12/24 00:03:13;;;;;;;10.48;7.95;;;;;;;8.83;53.84;99832.33;1742235;81;21376;-69
2020/12/24 00:05:40;;;;;;;10.48;8.18;;;;;;;8.83;53.84;99839.45;1760937;81;21182;-68
2020/12/24 00:08:07;;;;;;;12.37;8.63;;;;;;;8.83;53.84;99836.80;1744041;81;21170;-67
2020/12/24 00:10:36;;;;;;;10.38;8.18;;;;;;;8.83;53.85;99844.25;1753552;81;21195;-69
2020/12/24 00:13:03;;;;;;;11.30;8.28;;;;;;;8.83;53.84;99840.78;1756934;80;21571;-68
2020/12/24 00:15:31;;;;;;;10.55;7.20;;;;;;;8.83;53.83;99838.95;1769304;80;22058;-67
2020/12/24 00:18:00;;;;;;;11.53;8.68;;;;;;;8.83;53.81;99829.68;1776275;80;21182;-68
2020/12/24 00:20:27;;;;;;;10.55;8.50;;;;;;;8.83;53.82;99832.83;1754280;81;21729;-69
2020/12/24 00:22:55;;;;;;;10.43;8.35;;;;;;;8.83;53.80;99830.18;1747054;81;21150;-70
2020/12/24 00:25:22;;;;;;;10.28;8.00;;;;;;;8.83;53.81;99832.33;1793832;78;21119;-71
2020/12/24 00:27:50;;;;;;;10.32;7.53;;;;;;;8.83;53.79;99824.88;1788461;78;21367;-68
2020/12/24 00:30:17;;;;;;;10.25;7.87;;;;;;;8.83;53.78;99816.44;1797626;78;21138;-69
2020/12/24 00:32:44;;;;;;;9.63;7.62;;;;;;;8.83;53.80;99820.41;1791017;78;21171;-70
2020/12/24 00:35:11;;;;;;;10.58;7.75;;;;;;;8.83;53.80;99815.61;1804139;78;21139;-68
2020/12/24 00:37:39;;;;;;;10.60;8.30;;;;;;;8.83;53.80;99820.41;1798646;78;21571;-69
2020/12/24 00:40:06;;;;;;;11.45;9.00;;;;;;;8.82;53.77;99813.43;1816183;78;21268;-68
2020/12/24 00:42:33;;;;;;;9.35;7.70;;;;;;;8.84;53.78;99814.61;1811453;78;21362;-69
2020/12/24 00:45:01;;;;;;;11.75;8.98;;;;;;;8.82;53.78;99814.75;1805941;78;21109;-69
2020/12/24 00:47:28;;;;;;;10.28;7.85;;;;;;;8.83;53.78;99817.76;1800125;78;21178;-69
2020/12/24 00:49:55;;;;;;;12.00;8.73;;;;;;;8.83;53.77;99828.35;1796332;78;21139;-68
2020/12/24 00:52:23;;;;;;;10.63;8.35;;;;;;;8.83;53.78;99831.50;1790621;78;21413;-69
2020/12/24 00:54:51;;;;;;;10.28;8.28;;;;;;;8.84;53.77;99834.48;1797594;78;21616;-68
2020/12/24 00:57:18;;;;;;;11.55;8.93;;;;;;;8.84;53.78;99837.12;1790744;78;21600;-68
2020/12/24 00:59:46;;;;;;;10.85;8.33;;;;;;;8.84;53.76;99836.62;1792663;78;21151;-67
2020/12/24 01:02:14;;;;;;;11.90;9.08;;;;;;;8.85;53.76;99833.00;1813466;78;21181;-67
2020/12/24 01:04:41;;;;;;;11.20;8.13;;;;;;;8.84;53.76;99827.85;1767769;80;22054;-67
2020/12/24 01:07:08;;;;;;;11.48;8.80;;;;;;;8.84;53.78;99833.97;1758129;81;21171;-68
2020/12/24 01:09:36;;;;;;;11.38;8.63;;;;;;;8.84;53.76;99841.92;1753167;81;21174;-67
2020/12/24 01:12:03;;;;;;;11.78;8.63;;;;;;;8.83;53.77;99833.66;1753254;81;21162;-69
2020/12/24 01:14:30;;;;;;;11.97;8.65;;;;;;;8.84;53.75;99830.50;1805206;78;21170;-69
2020/12/24 01:16:58;;;;;;;11.43;8.38;;;;;;;8.85;53.75;99835.66;1798530;78;22795;-69
2020/12/24 01:19:26;;;;;;;11.35;8.38;;;;;;;8.83;53.75;99832.33;1780346;80;21195;-68
2020/12/24 01:21:53;;;;;;;11.25;8.90;;;;;;;8.85;53.78;99840.13;1747103;81;21582;-70
2020/12/24 01:24:20;;;;;;;11.10;8.33;;;;;;;8.84;53.77;99836.62;1742570;81;21218;-69
2020/12/24 01:26:48;;;;;;;11.45;8.00;;;;;;;8.84;53.76;99832.65;1772150;80;21116;-70
2020/12/24 01:29:16;;;;;;;12.47;8.83;;;;;;;8.84;53.76;99831.83;1745462;81;21261;-70
2020/12/24 01:31:45;;;;;;;10.58;8.30;;;;;;;8.84;53.77;99835.30;1770504;80;21123;-70
2020/12/24 01:34:13;;;;;;;12.00;9.27;;;;;;;8.84;53.76;99837.12;1778042;80;21191;-69
2020/12/24 01:36:41;;;;;;;11.40;8.13;;;;;;;8.85;53.77;99836.16;1766938;80;21139;-69
2020/12/24 01:39:08;;;;;;;11.15;8.50;;;;;;;8.84;53.77;99830.00;1748660;80;21198;-69
2020/12/24 01:41:36;;;;;;;10.93;8.75;;;;;;;8.85;53.76;99830.86;1749746;80;21454;-70
2020/12/24 01:44:04;;;;;;;10.58;7.87;;;;;;;8.84;53.76;99828.67;1745359;81;21151;-70
2020/12/24 01:46:31;;;;;;;9.35;7.80;;;;;;;8.84;53.76;99827.35;1771204;80;21135;-69
2020/12/24 01:49:00;;;;;;;10.75;7.92;;;;;;;8.85;53.77;99821.58;1750994;81;21197;-69
2020/12/24 01:51:30;;;;;;;11.95;8.85;;;;;;;8.84;53.76;99820.73;1818518;78;21210;-69
2020/12/24 01:53:59;;;;;;;11.70;8.78;;;;;;;8.84;53.76;99824.70;1820004;78;23370;-70
2020/12/24 01:56:26;;;;;;;11.83;9.15;;;;;;;8.84;53.76;99819.91;1812500;78;21159;-69
2020/12/24 01:58:55;;;;;;;11.20;8.55;;;;;;;8.84;53.77;99821.23;1817743;78;21159;-68
2020/12/24 02:01:22;;;;;;;10.40;8.58;;;;;;;8.84;53.77;99819.91;1803274;78;21155;-69
2020/12/24 02:03:50;;;;;;;10.60;8.65;;;;;;;8.83;53.76;99825.70;1819934;78;21163;-68
2020/12/24 02:06:17;;;;;;;11.15;9.05;;;;;;;8.83;53.77;99820.91;1807267;78;21259;-69
2020/12/24 02:08:46;;;;;;;10.20;7.67;;;;;;;8.84;53.77;99825.20;1814139;78;21098;-69
2020/12/24 02:11:14;;;;;;;10.95;8.28;;;;;;;8.84;53.77;99821.23;1803016;78;21159;-69
2020/12/24 02:13:41;;;;;;;11.20;8.40;;;;;;;8.84;53.77;99827.85;1813786;78;21162;-68
2020/12/24 02:16:09;;;;;;;10.10;8.38;;;;;;;8.84;53.75;99821.23;1803804;78;21163;-68
2020/12/24 02:18:37;;;;;;;10.20;7.85;;;;;;;8.84;53.76;99818.58;1795871;78;21381;-69
2020/12/24 02:21:05;;;;;;;11.20;8.75;;;;;;;8.83;53.76;99821.73;1798678;78;21207;-68
2020/12/24 02:23:32;;;;;;;10.18;8.53;;;;;;;8.84;53.76;99822.05;1797235;78;21131;-69
2020/12/24 02:25:59;;;;;;;9.25;7.37;;;;;;;8.84;53.75;99822.55;1807698;78;21098;-69
2020/12/24 02:28:26;;;;;;;12.18;9.13;;;;;;;8.84;53.76;99811.45;1815511;77;21119;-70
2020/12/24 02:30:54;;;;;;;11.43;8.58;;;;;;;8.84;53.77;99804.01;1818242;78;22309;-70
2020/12/24 02:33:21;;;;;;;11.48;8.38;;;;;;;8.84;53.77;99802.19;1812562;78;21301;-69
2020/12/24 02:35:49;;;;;;;10.32;8.10;;;;;;;8.84;53.77;99808.80;1813033;78;21155;-70
2020/12/24 02:38:16;;;;;;;11.93;9.55;;;;;;;8.83;53.75;99813.78;1807016;78;21150;-70
2020/12/24 02:40:44;;;;;;;11.55;8.05;;;;;;;8.83;53.77;99802.36;1815076;78;21146;-69
2020/12/24 02:43:11;;;;;;;10.80;8.35;;;;;;;8.84;53.78;99808.80;1819451;78;21453;-69
2020/12/24 02:45:38;;;;;;;12.00;8.85;;;;;;;8.83;53.76;99811.13;1813555;78;21174;-69
2020/12/24 02:48:06;;;;;;;11.90;8.93;;;;;;;8.84;53.77;99815.43;1796097;78;21178;-69
2020/12/24 02:50:33;;;;;;;11.35;8.53;;;;;;;8.84;53.78;99818.58;1811497;78;21104;-67
2020/12/24 02:53:01;;;;;;;11.90;8.80;;;;;;;8.84;53.76;99818.08;1805909;78;21163;-69
2020/12/24 02:55:28;;;;;;;10.35;8.08;;;;;;;8.84;53.77;99813.28;1807393;77;21294;-67
2020/12/24 02:57:55;;;;;;;11.83;8.38;;;;;;;8.83;53.76;99813.78;1766991;80;21337;-69
2020/12/24 03:00:23;;;;;;;9.83;8.35;;;;;;;8.85;53.77;99819.76;1758802;81;21131;-69
2020/12/24 03:02:50;;;;;;;10.55;8.03;;;;;;;8.84;53.76;99816.75;1754168;81;21213;-69
2020/12/24 03:05:17;;;;;;;10.10;7.75;;;;;;;8.84;53.77;99816.75;1757758;81;21207;-69
2020/12/24 03:07:49;;;;;;;10.63;7.87;;;;;;;8.83;53.77;99820.91;1739283;81;21365;-71
2020/12/24 03:10:18;;;;;;;11.53;9.18;;;;;;;8.85;53.77;99822.91;1757983;81;21644;-70
2020/12/24 03:12:45;;;;;;;11.63;8.50;;;;;;;8.85;53.75;99818.43;1741050;81;21563;-69
2020/12/24 03:15:13;;;;;;;9.63;7.12;;;;;;;8.84;53.77;99804.83;1737318;81;22049;-70
2020/12/24 03:17:41;;;;;;;11.05;8.55;;;;;;;8.83;53.78;99800.54;1793245;79;21610;-69
2020/12/24 03:20:10;;;;;;;9.10;7.10;;;;;;;8.84;53.77;99806.66;1755368;81;21648;-69
2020/12/24 03:22:39;;;;;;;10.65;8.28;;;;;;;8.84;53.76;99804.83;1750555;80;21155;-70
2020/12/24 03:25:07;;;;;;;11.25;8.25;;;;;;;8.83;53.78;99801.86;1745640;80;21191;-68
2020/12/24 03:27:34;;;;;;;10.35;8.13;;;;;;;8.83;53.78;99796.56;1756298;80;21185;-69
2020/12/24 03:30:02;;;;;;;10.18;8.25;;;;;;;8.84;53.78;99798.71;1746128;81;21198;-69
2020/12/24 03:32:29;;;;;;;11.15;8.48;;;;;;;8.84;53.78;99796.89;1744848;81;21471;-68
2020/12/24 03:34:57;;;;;;;9.43;7.80;;;;;;;8.84;53.78;99785.47;1746009;81;21139;-69
2020/12/24 03:37:24;;;;;;;9.95;7.90;;;;;;;8.84;53.79;99791.59;1777724;80;21577;-70
2020/12/24 03:39:51;;;;;;;11.20;8.25;;;;;;;8.84;53.78;99786.79;1753835;81;21135;-70
2020/12/24 03:42:18;;;;;;;10.18;8.45;;;;;;;8.84;53.79;99792.91;1742949;81;21183;-70
2020/12/24 03:44:45;;;;;;;10.35;8.20;;;;;;;8.84;53.80;99791.59;1759692;80;22155;-71
2020/12/24 03:47:14;;;;;;;10.32;8.20;;;;;;;8.84;53.80;99784.97;1740353;81;21172;-69
2020/12/24 03:49:41;;;;;;;10.35;7.62;;;;;;;8.84;53.79;99775.69;1751549;81;22220;-68
2020/12/24 03:52:09;;;;;;;9.60;8.00;;;;;;;8.84;53.78;99769.06;1768413;80;21112;-69
2020/12/24 03:54:37;;;;;;;10.10;7.60;;;;;;;8.84;53.78;99769.06;1748402;81;21230;-69
2020/12/24 03:57:04;;;;;;;10.55;8.30;;;;;;;8.85;53.78;99769.92;1802791;79;21381;-70
2020/12/24 03:59:32;;;;;;;11.12;8.20;;;;;;;8.84;53.79;99766.42;1803414;79;21164;-69
2020/12/24 04:01:59;;;;;;;11.12;7.72;;;;;;;8.85;53.78;99769.92;1736756;81;21127;-69
2020/12/24 04:04:26;;;;;;;11.63;8.48;;;;;;;8.85;53.78;99760.15;1800765;79;21155;-70
2020/12/24 04:06:55;;;;;;;11.20;8.63;;;;;;;8.85;53.76;99763.30;1794937;79;21142;-70
2020/12/24 04:09:22;;;;;;;11.63;8.83;;;;;;;8.85;53.77;99765.45;1747170;81;21293;-68
2020/12/24 04:11:49;;;;;;;11.25;7.85;;;;;;;8.86;53.79;99762.30;1785050;80;21179;-69
2020/12/24 04:14:17;;;;;;;12.80;8.20;;;;;;;8.86;53.78;99762.30;1763866;80;21473;-69
2020/12/24 04:16:44;;;;;;;9.65;7.55;;;;;;;8.86;53.78;99764.95;1767658;80;21132;-69
2020/12/24 04:19:12;;;;;;;11.90;9.03;;;;;;;8.87;53.78;99760.00;1796072;79;21184;-72
2020/12/24 04:21:39;;;;;;;11.12;8.23;;;;;;;8.88;53.77;99758.17;1791632;79;22133;-69
2020/12/24 04:24:08;;;;;;;11.55;9.08;;;;;;;8.87;53.77;99752.55;1802789;79;21139;-68
2020/12/24 04:26:36;;;;;;;10.05;8.08;;;;;;;8.86;53.77;99757.00;1798670;79;21128;-68
2020/12/24 04:29:03;;;;;;;11.15;8.08;;;;;;;8.87;53.76;99748.58;1800248;79;21186;-69
2020/12/24 04:31:31;;;;;;;10.53;8.18;;;;;;;8.87;53.77;99752.55;1807356;78;21163;-69
2020/12/24 04:33:58;;;;;;;11.93;8.60;;;;;;;8.85;53.78;99755.35;1809609;79;21367;-68
2020/12/24 04:36:25;;;;;;;11.43;8.75;;;;;;;8.85;53.78;99758.83;1804223;79;21121;-68
2020/12/24 04:38:53;;;;;;;11.00;8.98;;;;;;;8.86;53.79;99758.33;1804108;79;21151;-67
2020/12/24 04:41:20;;;;;;;10.93;8.73;;;;;;;8.86;53.78;99757.00;1801458;79;21127;-67
2020/12/24 04:43:47;;;;;;;11.30;8.53;;;;;;;8.87;53.78;99752.55;1798490;79;22039;-68
2020/12/24 04:46:14;;;;;;;9.83;7.97;;;;;;;8.87;53.77;99747.26;1778426;80;21377;-68
2020/12/24 04:48:42;;;;;;;11.63;8.80;;;;;;;8.87;53.78;99749.91;1764965;80;21643;-69
2020/12/24 04:51:11;;;;;;;11.30;8.18;;;;;;;8.86;53.78;99746.41;1786638;79;21156;-67
2020/12/24 04:53:38;;;;;;;10.58;8.08;;;;;;;8.86;53.79;99749.05;1791873;79;22031;-67
2020/12/24 04:56:07;;;;;;;10.60;8.10;;;;;;;8.87;53.77;99745.93;1804467;79;21127;-68
2020/12/24 04:58:35;;;;;;;12.03;8.75;;;;;;;8.87;53.78;99744.61;1747917;81;21901;-68
2020/12/24 05:01:02;;;;;;;10.15;7.62;;;;;;;8.86;53.79;99741.11;1800755;79;21139;-68
2020/12/24 05:03:30;;;;;;;10.28;8.30;;;;;;;8.86;53.80;99749.05;1785514;79;21166;-68
2020/12/24 05:05:58;;;;;;;10.55;8.20;;;;;;;8.86;53.78;99751.70;1773833;80;21402;-68
2020/12/24 05:08:26;;;;;;;9.28;7.10;;;;;;;8.87;53.79;99749.91;1744980;80;21082;-68
2020/12/24 05:11:07;;;;;;;9.35;7.55;;;;;;;8.86;53.79;99754.34;1748899;81;21217;-69
2020/12/24 05:13:35;;;;;;;9.93;7.50;;;;;;;8.85;53.80;99757.50;1787205;78;21211;-68
2020/12/24 05:16:15;;;;;;;11.30;8.25;;;;;;;8.86;53.79;99754.34;1809743;78;21103;-70
2020/12/24 05:18:43;;;;;;;11.93;8.43;;;;;;;8.86;53.83;99753.02;1795704;78;21171;-68
2020/12/24 05:21:10;;;;;;;12.13;9.23;;;;;;;8.85;53.82;99749.55;1818921;78;21175;-67
2020/12/24 05:23:37;;;;;;;11.95;8.60;;;;;;;8.84;53.83;99753.17;1816835;78;21325;-67
2020/12/24 05:26:19;;;;;;;11.45;8.00;;;;;;;8.85;53.85;99747.41;1778044;80;21108;-67
2020/12/24 05:28:46;;;;;;;10.35;7.17;;;;;;;8.85;53.84;99748.23;1755823;81;21175;-69
2020/12/24 05:31:30;;;;;;;11.00;8.05;;;;;;;8.84;53.85;99743.91;1754508;81;21127;-67
2020/12/24 05:33:57;;;;;;;;;;;;;;;8.85;53.85;99749.55;1810813;78;21170;-68
2020/12/24 05:36:24;;;;;;;11.22;8.03;;;;;;;8.84;53.86;99760.30;1813630;78;21201;-68
2020/12/24 05:38:52;;;;;;;11.93;8.53;;;;;;;8.77;53.99;99755.28;1812768;78;21152;-70
2020/12/24 05:41:36;;;;;;;11.35;7.90;;;;;;;8.77;54.00;99754.81;1805531;78;21119;-70
2020/12/24 05:44:09;;;;;;;10.03;7.55;;;;;;;8.79;53.98;99758.13;1781950;80;21139;-70
2020/12/24 05:46:45;;;;;;;12.25;8.63;;;;;;;8.80;53.98;99761.10;1753097;80;21071;-68
2020/12/24 05:49:20;;;;;;;10.08;7.95;;;;;;;8.80;53.98;99766.90;1748246;81;22309;-69
2020/12/24 05:51:55;;;;;;;10.05;7.37;;;;;;;8.79;53.98;99764.75;1809501;78;21146;-69
2020/12/24 05:54:23;;;;;;;10.80;7.92;;;;;;;8.80;53.97;99766.90;1820769;78;21119;-69
2020/12/24 05:56:50;;;;;;;12.07;8.05;;;;;;;8.80;53.98;99764.25;1805358;78;21171;-69
2020/12/24 05:59:19;;;;;;;10.35;7.65;;;;;;;8.81;53.98;99763.28;1738916;81;21212;-70
2020/12/24 06:02:06;;;;;;;10.95;8.18;;;;;;;8.80;53.97;99758.45;1752640;81;22340;-70
2020/12/24 06:04:48;;;;;;;10.98;8.45;;;;;;;8.81;53.97;99748.20;1800007;78;21178;-69
2020/12/24 06:07:30;;;;;;;9.50;7.62;;;;;;;8.81;53.97;99743.41;1805743;78;21151;-69
2020/12/24 06:10:06;;;;;;;11.53;8.70;;;;;;;8.80;53.98;99739.91;1754121;81;21173;-71
2020/12/24 06:12:51;;;;;;;10.58;7.58;;;;;;;8.83;54.02;99732.16;1799158;79;28063;-71
2020/12/24 06:15:18;;;;;;;11.45;8.48;;;;;;;8.80;54.01;99733.79;1772761;80;21988;-69
2020/12/24 06:17:47;;;;;;;11.60;8.35;;;;;;;8.79;54.00;99721.05;1744820;80;21374;-68
2020/12/24 06:20:18;;;;;;;12.28;8.70;;;;;;;8.80;54.01;99717.89;1779353;80;21127;-68
2020/12/24 06:22:46;;;;;;;10.80;7.67;;;;;;;8.80;53.99;99720.05;1787106;79;21171;-66
2020/12/24 06:25:13;;;;;;;9.98;7.78;;;;;;;8.80;53.99;99727.98;1765381;80;21191;-68
2020/12/24 06:27:44;;;;;;;10.93;8.13;;;;;;;8.82;53.98;99730.48;1799229;79;21096;-68
2020/12/24 06:30:16;;;;;;;11.18;8.33;;;;;;;8.82;53.97;99730.48;1776308;80;21419;-67
2020/12/24 06:32:50;;;;;;;10.03;7.33;;;;;;;8.82;53.97;99736.61;1775332;79;21669;-69
2020/12/24 06:35:37;;;;;;;11.55;8.88;;;;;;;8.83;53.96;99733.48;1757199;80;21065;-68
2020/12/24 06:38:09;;;;;;;11.97;8.30;;;;;;;8.83;53.96;99724.22;1761729;80;21174;-68
2020/12/24 06:40:38;;;;;;;11.55;9.10;;;;;;;8.82;53.96;99716.74;1762963;80;21199;-69
2020/12/24 06:43:06;;;;;;;10.65;8.08;;;;;;;8.83;53.96;99714.95;1768188;79;21367;-68
2020/12/24 06:45:39;;;;;;;11.28;7.50;;;;;;;8.83;53.98;99710.47;1784514;79;21152;-69
2020/12/24 06:48:24;;;;;;;10.15;7.72;;;;;;;8.83;53.98;99714.45;1765514;80;21179;-70
2020/12/24 06:51:03;;;;;;;9.88;7.58;;;;;;;8.84;53.98;99713.94;1768377;80;21150;-70
2020/12/24 06:53:36;;;;;;;10.82;7.80;;;;;;;8.83;53.98;99719.74;1772634;80;21104;-69
2020/12/24 06:56:16;;;;;;;10.65;7.60;;;;;;;8.84;53.98;99722.70;1742385;81;21464;-69
2020/12/24 06:59:01;;;;;;;10.40;8.50;;;;;;;8.84;53.96;99722.70;1776059;79;21219;-70
2020/12/24 07:01:35;;;;;;;10.32;7.15;;;;;;;8.86;53.97;99705.34;1780080;80;21178;-70
2020/12/24 07:04:05;;;;;;;10.20;7.30;;;;;;;8.85;53.97;99712.97;1781042;80;21154;-68
2020/12/24 07:06:49;;;;;;;9.48;7.20;;;;;;;8.84;53.98;99709.47;1781703;79;21122;-67
2020/12/24 07:09:23;;;;;;;;;;;;;;;8.87;53.96;99720.27;1797313;79;22557;-68
2020/12/24 07:11:52;;;;;;;9.63;6.83;;;;;;;8.85;53.97;99715.11;1757994;80;20557;-68
2020/12/24 07:14:37;;;;;;;8.75;7.67;;;;;;;8.79;54.11;99716.25;1761724;81;21132;-70
2020/12/24 07:17:19;;;;;;;10.55;7.70;;;;;;;8.79;54.11;99709.13;1757470;79;21110;-72
2020/12/24 07:19:50;;;;;;;10.15;7.70;;;;;;;8.81;54.09;99713.77;1758926;81;21199;-71
2020/12/24 07:22:18;;;;;;;10.50;7.40;;;;;;;8.81;54.10;99708.47;1754947;81;21378;-70
2020/12/24 07:24:48;;;;;;;9.95;6.87;;;;;;;8.82;54.08;99712.77;1761512;81;21190;-67
2020/12/24 07:27:15;;;;;;;12.03;8.05;;;;;;;8.83;54.07;99706.49;1759347;81;21620;-70
2020/12/24 07:30:43;;;;;;;9.23;7.22;;;;;;;8.90;54.05;99708.00;1782334;79;27531;-67
2020/12/24 07:33:11;;;;;;;8.88;7.05;;;;;;;8.85;54.05;99708.48;1739376;82;21165;-66
2020/12/24 07:35:43;;;;;;;11.83;7.75;;;;;;;8.88;54.04;99695.91;1698440;81;21185;-67
2020/12/24 07:38:10;;;;;;;9.85;7.75;;;;;;;8.89;54.00;99697.59;1759066;79;21165;-68
2020/12/24 07:40:38;;;;;;;9.65;7.15;;;;;;;8.91;54.00;99711.00;1767868;80;21225;-68
2020/12/24 07:43:10;;;;;;;9.25;7.37;;;;;;;8.92;53.97;99705.20;1760816;81;21226;-67
2020/12/24 07:45:38;;;;;;;9.20;6.78;;;;;;;8.94;53.95;99700.58;1764115;79;21186;-69
2020/12/24 07:48:18;;;;;;;10.35;7.33;;;;;;;8.95;53.92;99705.72;1755141;79;21266;-67
2020/12/24 07:50:47;;;;;;;9.50;7.33;;;;;;;8.96;53.92;99698.59;1752461;81;21221;-66
2020/12/24 07:53:28;;;;;;;10.58;7.15;;;;;;;8.96;53.89;99703.42;1767139;80;21142;-69
2020/12/24 07:56:05;;;;;;;9.18;7.20;;;;;;;8.97;53.89;99695.80;1756978;80;21173;-70
2020/12/24 07:58:34;;;;;;;11.63;8.35;;;;;;;8.99;53.88;99704.91;1754903;80;21820;-69
2020/12/24 08:01:03;;;;;;;8.68;6.83;;;;;;;8.98;53.87;99707.22;1757878;79;21389;-69
2020/12/24 08:03:31;;;;;;;9.15;7.00;;;;;;;9.00;54.16;99699.94;1751677;80;21174;-71
2020/12/24 08:06:06;;;;;;;11.38;6.60;;;;;;;9.02;55.10;99696.16;1759578;79;21154;-70
2020/12/24 08:08:36;;;;;;;9.03;6.62;;;;;;;9.05;56.70;99697.14;1766850;80;21146;-72
2020/12/24 08:11:07;;;;;;;9.98;6.47;;;;;;;9.09;57.49;99700.31;1764557;80;21182;-69
2020/12/24 08:13:35;;;;;;;11.50;6.85;;;;;;;9.13;57.71;99706.95;1757898;80;21382;-67
2020/12/24 08:16:02;;;;;;;12.07;6.85;;;;;;;9.15;57.75;99711.59;1760205;80;21147;-67
2020/12/24 08:18:36;;;;;;;11.30;7.08;;;;;;;9.17;57.65;99708.29;1728123;81;21182;-67
2020/12/24 08:21:18;;;;;;;11.38;7.30;;;;;;;9.18;57.52;99717.09;1758466;80;21121;-68
2020/12/24 08:23:52;;;;;;;9.93;7.00;;;;;;;9.19;57.38;99714.77;1752119;81;21198;-68
2020/12/24 08:26:20;;;;;;;8.23;6.47;;;;;;;9.20;57.17;99717.26;1764347;80;21385;-68
2020/12/24 08:28:57;;;;;;;8.08;5.87;;;;;;;9.13;57.00;99701.65;1749349;80;21304;-70
2020/12/24 08:31:25;;;;;;;8.30;6.17;;;;;;;9.21;56.87;99718.08;1753670;80;21144;-71
2020/12/24 08:33:53;;;;;;;10.35;6.58;;;;;;;9.21;56.68;99712.78;1757485;80;21195;-71
2020/12/24 08:36:26;;;;;;;10.88;6.65;;;;;;;9.22;56.54;99705.17;1747308;80;21195;-72
2020/12/24 08:39:05;;;;;;;9.10;6.58;;;;;;;9.22;56.37;99694.07;1756587;81;22367;-73
2020/12/24 08:41:35;;;;;;;7.97;6.47;;;;;;;9.23;56.24;99701.05;1759292;80;21594;-70
2020/12/24 08:44:04;;;;;;;9.78;6.40;;;;;;;9.22;56.11;99698.05;1740707;81;21740;-69
2020/12/24 08:46:32;;;;;;;8.58;6.53;;;;;;;9.22;55.99;99704.67;1753645;81;21181;-68
2020/12/24 08:49:21;;;;;;;10.58;7.22;;;;;;;9.23;55.89;99698.87;1753243;81;21136;-70
2020/12/24 08:51:49;;;;;;;9.70;6.85;;;;;;;9.23;55.79;99697.07;1752877;81;21367;-70
2020/12/24 08:54:16;;;;;;;9.43;7.35;;;;;;;9.21;55.67;99691.10;1755616;80;21211;-70
2020/12/24 08:56:44;;;;;;;8.88;6.80;;;;;;;9.22;55.60;99686.63;1748274;80;22329;-67
2020/12/24 08:59:14;;;;;;;8.78;6.00;;;;;;;9.21;55.52;99668.57;1751355;80;21163;-71
2020/12/24 09:01:43;;;;;;;8.43;6.17;;;;;;;9.21;55.45;99661.95;1753950;81;21170;-70
2020/12/24 09:04:14;;;;;;;8.85;6.55;;;;;;;9.21;55.37;99659.30;1743790;81;21261;-75
2020/12/24 09:06:43;;;;;;;9.83;6.60;;;;;;;9.22;55.34;99661.44;1742911;81;21182;-69
2020/12/24 09:09:21;;;;;;;8.73;6.60;;;;;;;9.21;55.27;99661.09;1753288;81;21166;-70
2020/12/24 09:11:52;;;;;;;10.65;6.67;;;;;;;9.22;55.21;99646.36;1748609;80;22311;-70
2020/12/24 09:14:22;;;;;;;9.23;5.80;;;;;;;9.22;55.13;99654.31;1749335;80;21598;-69
2020/12/24 09:17:00;;;;;;;8.03;6.33;;;;;;;9.22;55.11;99655.64;1753960;80;21235;-66
2020/12/24 09:19:28;;;;;;;8.80;6.35;;;;;;;9.22;55.04;99652.98;1764599;81;21151;-69
2020/12/24 09:21:57;;;;;;;8.33;6.25;;;;;;;9.22;54.98;99657.47;1763725;79;21142;-70
2020/12/24 09:24:27;;;;;;;7.53;5.83;;;;;;;9.22;54.95;99668.07;1761885;81;21213;-70
2020/12/24 09:26:56;;;;;;;9.80;6.75;;;;;;;9.22;54.89;99656.96;1750762;80;21439;-71
2020/12/24 09:29:27;;;;;;;8.80;6.80;;;;;;;9.22;54.87;99648.19;1786154;80;21222;-75
2020/12/24 09:31:59;;;;;;;9.08;6.78;;;;;;;9.22;54.84;99654.31;1757221;80;21198;-71
2020/12/24 09:34:28;;;;;;;10.35;6.30;;;;;;;9.22;54.78;99643.70;1785785;79;21500;-70
2020/12/24 09:36:55;;;;;;;8.73;6.30;;;;;;;9.23;54.73;99629.48;1751032;80;21195;-72
2020/12/24 09:39:23;;;;;;;8.35;6.17;;;;;;;9.23;54.71;99632.59;1753425;80;21210;-74
2020/12/24 09:41:50;;;;;;;7.30;5.80;;;;;;;9.17;54.69;99636.72;1766869;80;21448;-72
2020/12/24 09:44:18;;;;;;;8.65;5.87;;;;;;;9.23;54.64;99646.70;1768613;79;21159;-76
2020/12/24 09:46:48;;;;;;;7.42;6.10;;;;;;;9.24;54.60;99634.28;1771173;78;21191;-75
2020/12/24 09:49:16;;;;;;;8.53;6.12;;;;;;;9.23;54.59;99620.20;1771040;80;21119;-80
2020/12/24 09:51:44;;;;;;;9.50;6.42;;;;;;;9.23;54.55;99619.34;1762694;80;21179;-72
2020/12/24 09:54:13;;;;;;;8.33;6.97;;;;;;;9.24;54.54;99609.09;1757705;81;21533;-71
2020/12/24 09:56:40;;;;;;;9.10;6.37;;;;;;;9.23;54.50;99604.30;1765695;80;21202;-70
2020/12/24 09:59:07;;;;;;;7.47;5.83;;;;;;;9.25;54.49;99597.48;1754454;80;21122;-71
2020/12/24 10:01:34;;;;;;;8.28;6.28;;;;;;;9.25;54.44;99585.55;1760641;80;21610;-72
2020/12/24 10:04:02;;;;;;;7.85;5.67;;;;;;;9.27;54.42;99582.24;1751292;80;21246;-73
2020/12/24 10:06:30;;;;;;;8.33;5.75;;;;;;;9.28;54.39;99589.72;1761093;80;21282;-69
2020/12/24 10:08:57;;;;;;;7.67;5.62;;;;;;;9.28;54.35;99580.44;1761945;81;21230;-72
2020/12/24 10:11:24;;;;;;;7.78;6.17;;;;;;;9.28;54.33;99573.81;1766501;80;21187;-72
2020/12/24 10:13:52;;;;;;;8.13;6.10;;;;;;;9.29;54.31;99567.50;1771403;80;21461;-67
2020/12/24 10:16:27;;;;;;;7.20;6.25;;;;;;;9.29;54.30;99560.41;1754425;80;21139;-78
2020/12/24 10:18:54;;;;;;;7.78;6.33;;;;;;;9.29;54.28;99555.58;1765932;81;22055;-75
2020/12/24 10:21:21;;;;;;;7.85;6.10;;;;;;;9.30;54.25;99554.59;1761335;80;21193;-76
2020/12/24 10:23:49;;;;;;;8.15;6.03;;;;;;;9.23;54.24;99538.50;1774492;80;21144;-76
2020/12/24 10:26:17;;;;;;;6.92;5.67;;;;;;;9.29;54.24;99547.62;1755412;81;21219;-70
2020/12/24 10:28:44;;;;;;;7.83;6.25;;;;;;;9.31;54.22;99553.59;1758200;79;21182;-68
2020/12/24 10:31:12;;;;;;;9.25;6.42;;;;;;;9.31;54.21;99542.98;1760146;79;23523;-69
2020/12/24 10:33:39;;;;;;;9.10;6.50;;;;;;;9.31;54.18;99537.68;1758957;80;21608;-76
2020/12/24 10:36:06;;;;;;;9.05;6.67;;;;;;;9.31;54.18;99541.66;1756042;81;21170;-73
2020/12/24 10:38:36;;;;;;;7.50;5.67;;;;;;;9.32;54.16;99542.00;1766821;79;21186;-76
2020/12/24 10:41:05;;;;;;;7.85;5.87;;;;;;;9.31;54.15;99534.55;1757594;79;21206;-75
2020/12/24 10:43:33;;;;;;;8.28;6.58;;;;;;;9.32;54.14;99532.22;1754913;81;22374;-78
2020/12/24 10:46:01;;;;;;;8.18;5.90;;;;;;;9.32;54.13;99519.47;1764721;80;21221;-75
2020/12/24 10:48:28;;;;;;;7.03;5.62;;;;;;;9.33;54.12;99523.77;1763943;81;21154;-77
2020/12/24 10:50:55;;;;;;;8.10;5.65;;;;;;;9.32;54.11;99516.31;1765842;81;21123;-78
2020/12/24 10:53:23;;;;;;;8.28;6.08;;;;;;;9.32;54.08;99507.03;1749565;81;21187;-79
2020/12/24 10:55:50;;;;;;;9.15;6.10;;;;;;;9.33;54.05;99514.48;1784540;79;21171;-77
2020/12/24 10:58:17;;;;;;;9.05;6.53;;;;;;;9.32;54.05;99511.02;1770143;80;21276;-71
2020/12/24 11:00:44;;;;;;;9.63;6.45;;;;;;;9.33;54.04;99509.18;1765285;79;21208;-72
2020/12/24 11:03:12;;;;;;;7.45;5.85;;;;;;;9.33;54.04;99512.69;1774604;79;21174;-70
2020/12/24 11:05:39;;;;;;;9.00;6.33;;;;;;;9.33;54.01;99499.91;1775648;79;21138;-72
2020/12/24 11:08:06;;;;;;;7.83;6.10;;;;;;;9.33;54.00;99502.55;1767931;80;21360;-72
2020/12/24 11:10:33;;;;;;;6.85;5.67;;;;;;;9.33;54.00;99494.60;1772777;80;21128;-72
2020/12/24 11:13:01;;;;;;;8.33;6.05;;;;;;;9.34;53.97;99494.95;1751438;81;21194;-70
2020/12/24 11:15:28;;;;;;;8.80;6.15;;;;;;;9.34;53.98;99484.34;1745752;81;21170;-71
2020/12/24 11:17:56;;;;;;;7.92;6.33;;;;;;;9.34;53.98;99485.67;1748183;80;21432;-73
2020/12/24 11:20:23;;;;;;;7.78;5.83;;;;;;;9.34;53.96;99483.02;1742565;81;21454;-71
2020/12/24 11:22:50;;;;;;;7.15;5.75;;;;;;;9.33;53.93;99476.05;1747640;81;21250;-72
2020/12/24 11:25:19;;;;;;;7.90;6.50;;;;;;;9.33;53.93;99488.83;1746501;81;21154;-71
2020/12/24 11:27:46;;;;;;;7.35;6.33;;;;;;;9.35;53.94;99476.70;1754729;81;21230;-72
2020/12/24 11:30:14;;;;;;;6.70;5.50;;;;;;;9.34;53.91;99471.09;1744567;81;21176;-73
2020/12/24 11:32:41;;;;;;;7.90;6.25;;;;;;;9.35;53.91;99471.41;1728936;81;21571;-72
2020/12/24 11:35:10;;;;;;;7.40;6.00;;;;;;;9.34;53.90;99463.14;1726281;82;21187;-76
2020/12/24 11:37:38;;;;;;;7.83;6.12;;;;;;;9.35;53.89;99463.45;1740131;81;21143;-76
2020/12/24 11:40:05;;;;;;;7.47;6.15;;;;;;;9.34;53.89;99461.81;1734349;81;21246;-75
2020/12/24 11:42:33;;;;;;;7.87;6.33;;;;;;;9.35;53.88;99460.80;1749177;81;21191;-75
2020/12/24 11:45:00;;;;;;;7.83;5.87;;;;;;;9.34;53.88;99449.88;1747166;81;21271;-76
2020/12/24 11:47:27;;;;;;;7.10;5.70;;;;;;;9.34;53.86;99447.23;1744254;81;21188;-73